Time;durP1;ratioP1;P1;durP2;ratioP2;P2;SDS_P1;SDS_P2;PMS_P1;PMS_P2;Temp;Humidity;BMP_temperature;BMP_pressure;BME280_temperature;BME280_humidity;BME280_pressure;Samples;Min_cycle;Max_cycle;Signal;HPM_P1;HPM_P2
2021/04/01 00:01:56;;;;;;;32.90;14.43;;;16.60;83.40;;;;;;5065733;28;20056;-73
2021/04/01 00:04:22;;;;;;;36.42;13.73;;;16.60;83.10;;;;;;5073952;28;20492;-72
2021/04/01 00:06:48;;;;;;;34.42;14.13;;;16.60;83.00;;;;;;5068425;28;20039;-72
2021/04/01 00:09:13;;;;;;;31.98;14.55;;;16.60;82.90;;;;;;5073693;28;20028;-72
2021/04/01 00:11:39;;;;;;;31.88;13.10;;;16.60;82.60;;;;;;5066642;28;20032;-72
2021/04/01 00:14:05;;;;;;;30.83;12.85;;;16.60;82.50;;;;;;5047371;28;20392;-72
2021/04/01 00:16:35;;;;;;;35.45;14.98;;;16.60;82.30;;;;;;5055222;28;20062;-72
2021/04/01 00:19:02;;;;;;;35.35;14.32;;;16.60;82.10;;;;;;5055488;28;20032;-73
2021/04/01 00:21:27;;;;;;;24.13;10.68;;;16.60;81.80;;;;;;5064986;28;20033;-72
2021/04/01 00:23:54;;;;;;;34.25;13.55;;;16.60;81.40;;;;;;5068065;28;20137;-72
2021/04/01 00:26:19;;;;;;;34.42;14.35;;;16.60;81.40;;;;;;5054843;28;20159;-72
2021/04/01 00:28:45;;;;;;;32.50;13.77;;;16.60;81.70;;;;;;5054711;28;20438;-72
2021/04/01 00:31:11;;;;;;;33.03;12.73;;;16.50;82.20;;;;;;5068107;28;20016;-72
2021/04/01 00:33:36;;;;;;;40.67;13.68;;;16.50;82.40;;;;;;5050312;28;20032;-71
2021/04/01 00:36:02;;;;;;;35.90;13.65;;;16.50;82.80;;;;;;5054365;28;20032;-71
2021/04/01 00:38:28;;;;;;;31.92;14.05;;;16.50;83.00;;;;;;5073038;28;20028;-71
2021/04/01 00:40:54;;;;;;;38.53;15.55;;;16.50;82.80;;;;;;5053674;28;20071;-72
2021/04/01 00:43:20;;;;;;;32.17;13.43;;;16.50;82.60;;;;;;5070497;28;20529;-72
2021/04/01 00:45:45;;;;;;;37.55;15.15;;;16.50;82.60;;;;;;5071637;28;20099;-72
2021/04/01 00:48:11;;;;;;;34.33;14.50;;;16.50;82.80;;;;;;5051824;28;20440;-72
2021/04/01 00:50:37;;;;;;;36.72;13.60;;;16.50;83.20;;;;;;5056627;28;20524;-73
2021/04/01 00:53:03;;;;;;;34.05;14.00;;;16.40;83.10;;;;;;5053577;28;20032;-73
2021/04/01 00:55:28;;;;;;;36.33;16.05;;;16.40;83.00;;;;;;5073076;28;20035;-73
2021/04/01 00:57:59;;;;;;;31.05;14.15;;;16.40;82.90;;;;;;5069677;28;20100;-72
2021/04/01 01:00:35;;;;;;;33.47;13.40;;;16.50;83.20;;;;;;5068138;28;20025;-72
2021/04/01 01:03:01;;;;;;;35.88;14.25;;;16.40;83.00;;;;;;5070941;28;20029;-73
2021/04/01 01:05:30;;;;;;;36.25;15.85;;;16.50;82.70;;;;;;5053984;28;20111;-73
2021/04/01 01:07:56;;;;;;;34.85;13.70;;;16.50;82.40;;;;;;5070544;28;20060;-73
2021/04/01 01:10:28;;;;;;;34.85;15.05;;;16.50;82.50;;;;;;5054255;28;20028;-74
2021/04/01 01:12:56;;;;;;;30.90;13.98;;;16.50;82.70;;;;;;5067230;28;20052;-73
2021/04/01 01:15:22;;;;;;;36.95;14.68;;;16.40;83.80;;;;;;5071098;28;20512;-73
2021/04/01 01:17:54;;;;;;;37.78;15.57;;;16.40;84.60;;;;;;5053669;28;20032;-72
2021/04/01 01:20:25;;;;;;;42.20;16.77;;;16.40;83.50;;;;;;5053880;28;20138;-73
2021/04/01 01:22:51;;;;;;;48.47;18.13;;;16.40;84.40;;;;;;5054919;28;20482;-73
2021/04/01 01:25:19;;;;;;;45.70;17.10;;;16.40;83.20;;;;;;5053696;28;20071;-73
2021/04/01 01:27:46;;;;;;;39.22;16.75;;;16.40;83.10;;;;;;5054953;28;20040;-73
2021/04/01 01:30:15;;;;;;;49.08;16.02;;;16.30;83.10;;;;;;5072108;28;20035;-73
2021/04/01 01:32:46;;;;;;;48.72;17.83;;;16.30;83.40;;;;;;5071715;28;20031;-73
2021/04/01 01:35:22;;;;;;;43.92;18.02;;;16.30;83.20;;;;;;5060299;28;20032;-74
2021/04/01 01:37:56;;;;;;;48.45;17.80;;;16.20;83.20;;;;;;5053135;28;20074;-73
2021/04/01 01:40:24;;;;;;;43.88;16.88;;;16.20;84.30;;;;;;5053524;28;20460;-73
2021/04/01 01:42:51;;;;;;;43.03;18.83;;;16.10;84.50;;;;;;5072085;28;20028;-73
2021/04/01 01:45:18;;;;;;;45.58;18.45;;;16.00;85.30;;;;;;5052968;28;20112;-73
2021/04/01 01:47:46;;;;;;;48.97;19.17;;;15.90;86.60;;;;;;5053298;28;20051;-73
2021/04/01 01:50:13;;;;;;;45.33;17.70;;;15.90;86.60;;;;;;5071200;28;20024;-73
2021/04/01 01:52:40;;;;;;;45.60;17.98;;;15.80;86.70;;;;;;5070386;28;20027;-73
2021/04/01 01:55:07;;;;;;;52.15;18.25;;;15.80;86.90;;;;;;5070638;28;20028;-72
2021/04/01 01:57:34;;;;;;;48.22;17.92;;;15.70;88.10;;;;;;5068908;28;20039;-72
2021/04/01 02:00:01;;;;;;;46.47;18.77;;;15.70;88.40;;;;;;5070714;28;20501;-73
2021/04/01 02:02:27;;;;;;;41.30;16.73;;;15.60;88.10;;;;;;5053790;28;20217;-73
2021/04/01 02:04:52;;;;;;;46.15;18.05;;;15.60;88.50;;;;;;5063674;28;20032;-73
2021/04/01 02:07:18;;;;;;;39.95;16.67;;;15.60;88.70;;;;;;5070855;28;20116;-73
2021/04/01 02:09:47;;;;;;;52.05;19.33;;;15.60;88.20;;;;;;5070954;28;20082;-73
2021/04/01 02:12:17;;;;;;;46.92;18.17;;;15.50;89.60;;;;;;5055827;28;20043;-73
2021/04/01 02:14:44;;;;;;;48.17;17.98;;;15.40;89.50;;;;;;5067111;28;20017;-74
2021/04/01 02:17:14;;;;;;;47.00;17.50;;;15.40;89.90;;;;;;5074898;28;20077;-73
2021/04/01 02:19:40;;;;;;;50.05;19.05;;;15.30;90.00;;;;;;5057154;28;20021;-74
2021/04/01 02:22:05;;;;;;;45.85;18.92;;;15.20;90.30;;;;;;5075256;28;20441;-73
2021/04/01 02:24:31;;;;;;;54.20;21.20;;;15.20;90.60;;;;;;5071044;28;20021;-74
2021/04/01 02:26:57;;;;;;;47.42;19.17;;;15.20;90.80;;;;;;5074453;28;20020;-74
2021/04/01 02:29:23;;;;;;;53.55;19.98;;;15.10;91.00;;;;;;5056360;28;20105;-73
2021/04/01 02:31:49;;;;;;;48.70;19.55;;;15.10;91.10;;;;;;5074852;28;20035;-73
2021/04/01 02:34:15;;;;;;;48.28;18.73;;;15.00;91.30;;;;;;5075279;28;20028;-74
2021/04/01 02:36:41;;;;;;;53.65;19.33;;;15.00;91.30;;;;;;5057574;28;20074;-73
2021/04/01 02:39:07;;;;;;;50.17;18.08;;;15.00;91.50;;;;;;5075253;28;20499;-73
2021/04/01 02:41:33;;;;;;;53.28;19.80;;;14.90;91.50;;;;;;5050190;28;20036;-72
2021/04/01 02:43:58;;;;;;;49.70;18.50;;;14.80;91.70;;;;;;5075565;28;20086;-73
2021/04/01 02:46:24;;;;;;;50.92;19.48;;;14.80;91.90;;;;;;5074535;28;20508;-73
2021/04/01 02:48:49;;;;;;;49.80;20.48;;;14.70;92.30;;;;;;5071523;28;20047;-73
2021/04/01 02:51:15;;;;;;;48.47;19.50;;;14.60;92.40;;;;;;5073639;28;20044;-73
2021/04/01 02:53:40;;;;;;;52.90;19.52;;;14.60;92.60;;;;;;5074453;28;20432;-73
2021/04/01 02:56:07;;;;;;;48.88;19.23;;;14.50;92.80;;;;;;5056923;28;20020;-73
2021/04/01 02:58:34;;;;;;;57.40;20.60;;;14.40;93.20;;;;;;5074297;28;20041;-72
2021/04/01 03:01:00;;;;;;;53.70;19.75;;;14.40;93.40;;;;;;5055315;28;20048;-73
2021/04/01 03:03:30;;;;;;;53.97;20.40;;;14.30;93.60;;;;;;5074771;28;20016;-73
2021/04/01 03:05:57;;;;;;;50.53;19.55;;;14.40;93.70;;;;;;5072040;28;20025;-73
2021/04/01 03:08:23;;;;;;;43.72;15.23;;;14.40;94.00;;;;;;5061802;28;20100;-73
2021/04/01 03:10:48;;;;;;;60.83;20.13;;;14.40;94.00;;;;;;5063716;28;20021;-73
2021/04/01 03:13:14;;;;;;;52.65;19.85;;;14.30;94.30;;;;;;5073956;28;20032;-73
2021/04/01 03:15:40;;;;;;;56.17;19.02;;;14.30;94.40;;;;;;5070187;28;20021;-73
2021/04/01 03:18:05;;;;;;;55.00;20.17;;;14.30;94.60;;;;;;5074795;28;20024;-73
2021/04/01 03:20:31;;;;;;;46.78;19.23;;;14.30;94.70;;;;;;5074840;28;20031;-73
2021/04/01 03:22:57;;;;;;;55.30;20.45;;;14.30;94.90;;;;;;5072904;28;20024;-73
2021/04/01 03:25:22;;;;;;;50.20;20.55;;;14.20;94.90;;;;;;5074308;28;20024;-73
2021/04/01 03:27:48;;;;;;;50.33;19.98;;;14.20;95.30;;;;;;5057139;28;20457;-73
2021/04/01 03:30:15;;;;;;;48.22;19.10;;;14.20;95.30;;;;;;5069395;28;20039;-73
2021/04/01 03:32:46;;;;;;;57.97;20.50;;;14.10;95.60;;;;;;5050760;28;20025;-73
2021/04/01 03:35:17;;;;;;;57.40;19.35;;;14.00;95.90;;;;;;5058904;28;20023;-73
2021/04/01 03:37:44;;;;;;;61.55;21.10;;;14.00;96.20;;;;;;5068799;28;20028;-74
2021/04/01 03:40:11;;;;;;;47.70;18.05;;;14.00;96.20;;;;;;5073420;28;20083;-73
2021/04/01 03:42:38;;;;;;;57.35;19.45;;;13.90;96.10;;;;;;5073631;28;20039;-72
2021/04/01 03:45:09;;;;;;;57.15;20.15;;;13.90;96.40;;;;;;5055911;28;20028;-73
2021/04/01 03:47:39;;;;;;;62.92;21.17;;;13.90;96.40;;;;;;5055892;28;20086;-73
2021/04/01 03:50:06;;;;;;;55.05;19.75;;;13.90;96.60;;;;;;5074310;28;20052;-73
2021/04/01 03:52:32;;;;;;;61.03;20.27;;;13.90;96.50;;;;;;5072899;28;20377;-73
2021/04/01 03:55:16;;;;;;;54.75;18.42;;;13.80;96.70;;;;;;5068196;28;20025;-73
2021/04/01 03:57:43;;;;;;;54.15;19.17;;;13.80;96.70;;;;;;5063358;28;20028;-73
2021/04/01 04:12:54;;;;;;;55.42;19.30;;;13.50;97.70;;;;;;5052814;28;20067;-74
2021/04/01 04:15:22;;;;;;;60.72;18.65;;;13.50;97.70;;;;;;5044145;28;20060;-73
2021/04/01 04:17:49;;;;;;;56.35;19.98;;;13.50;97.80;;;;;;5041131;28;20060;-73
2021/04/01 04:20:15;;;;;;;48.67;17.23;;;13.50;97.80;;;;;;5048952;28;20022;-73
2021/04/01 04:22:42;;;;;;;55.05;18.50;;;13.40;97.90;;;;;;5043490;28;20108;-73
2021/04/01 04:25:10;;;;;;;51.80;19.45;;;13.40;98.00;;;;;;5053876;28;20029;-73
2021/04/01 04:30:15;;;;;;;56.13;17.23;;;13.30;98.70;;;;;;5049342;28;20051;-73
2021/04/01 04:32:40;;;;;;;60.55;19.67;;;13.30;98.80;;;;;;5051999;28;20060;-73
2021/04/01 04:35:06;;;;;;;52.80;17.70;;;13.30;98.90;;;;;;5044279;28;20029;-73
2021/04/01 04:37:32;;;;;;;59.55;18.23;;;13.20;99.00;;;;;;5050018;28;20033;-73
2021/04/01 04:39:58;;;;;;;57.00;18.40;;;13.20;99.10;;;;;;5052048;28;20115;-73
2021/04/01 04:42:23;;;;;;;49.78;18.45;;;13.20;99.00;;;;;;5050967;28;20041;-74
2021/04/01 04:44:49;;;;;;;54.75;17.25;;;13.30;99.10;;;;;;5053043;28;20021;-73
2021/04/01 04:47:15;;;;;;;47.38;17.30;;;13.20;99.40;;;;;;5053038;28;20489;-73
2021/04/01 04:49:40;;;;;;;47.60;17.27;;;13.20;99.40;;;;;;5052337;28;20392;-73
2021/04/01 04:52:06;;;;;;;51.10;16.98;;;13.20;99.50;;;;;;5052759;28;20434;-73
2021/04/01 04:54:32;;;;;;;47.83;16.67;;;13.20;99.60;;;;;;5051754;28;20386;-73
2021/04/01 04:57:02;;;;;;;60.88;19.48;;;13.20;99.80;;;;;;5051319;28;20041;-74
2021/04/01 05:05:06;;;;;;;58.58;19.27;;;13.10;99.90;;;;;;5051023;28;20082;-73
2021/04/01 05:07:31;;;;;;;56.05;19.27;;;13.00;99.90;;;;;;5050878;28;20116;-73
2021/04/01 05:09:57;;;;;;;61.97;20.08;;;13.00;99.90;;;;;;5052481;28;20055;-73
2021/04/01 05:12:23;;;;;;;65.55;19.63;;;12.90;99.90;;;;;;5053441;28;20197;-73
2021/04/01 05:14:48;;;;;;;63.45;20.80;;;13.00;99.90;;;;;;5052082;28;20021;-73
2021/04/01 05:17:17;;;;;;;70.40;20.10;;;12.90;99.90;;;;;;5051308;28;20104;-73
2021/04/01 05:19:43;;;;;;;53.97;20.38;;;12.80;99.90;;;;;;5049978;28;20025;-73
2021/04/01 05:22:19;;;;;;;59.63;21.33;;;12.80;99.90;;;;;;5044637;28;20033;-72
2021/04/01 05:24:45;;;;;;;71.03;23.85;;;12.80;99.90;;;;;;5051797;28;20039;-73
2021/04/01 05:29:40;;;;;;;72.10;23.30;;;12.80;99.90;;;;;;5052161;28;20075;-73
2021/04/01 05:32:07;;;;;;;77.20;23.33;;;12.80;99.90;;;;;;5040421;28;20028;-73
2021/04/01 05:34:35;;;;;;;69.55;23.10;;;12.80;99.90;;;;;;5048660;28;20021;-73
2021/04/01 05:37:01;;;;;;;80.55;23.95;;;12.80;99.90;;;;;;5054976;28;20030;-73
2021/04/01 05:39:34;;;;;;;72.85;24.35;;;12.80;99.90;;;;;;5054305;28;20492;-74
2021/04/01 05:42:00;;;;;;;74.00;22.50;;;12.70;99.90;;;;;;5048471;28;20024;-74
2021/04/01 05:52:37;;;;;;;96.03;30.40;;;12.80;99.90;;;;;;5042828;28;20087;-74
2021/04/01 06:03:40;;;;;;;106.57;39.83;;;12.50;99.90;;;;;;5064525;28;20040;-71
2021/04/01 06:06:10;;;;;;;104.45;40.22;;;12.50;99.90;;;;;;5071490;28;20056;-72
2021/04/01 06:08:46;;;;;;;105.28;42.90;;;12.40;99.90;;;;;;5067127;28;20461;-72
2021/04/01 06:11:13;;;;;;;104.55;40.92;;;12.30;99.90;;;;;;5072464;28;20078;-72
2021/04/01 06:13:51;;;;;;;108.10;41.33;;;12.20;99.90;;;;;;5058757;28;20024;-72
2021/04/01 06:16:18;;;;;;;107.15;45.08;;;12.20;99.90;;;;;;5053392;28;20035;-72
2021/04/01 06:18:53;;;;;;;105.63;43.73;;;12.10;99.90;;;;;;5069418;28;20046;-72
2021/04/01 06:21:24;;;;;;;108.75;45.55;;;12.00;99.90;;;;;;5066796;28;20498;-73
2021/04/01 06:24:04;;;;;;;114.28;47.17;;;12.10;99.90;;;;;;5071390;28;20044;-73
2021/04/01 06:26:33;;;;;;;104.43;44.92;;;12.00;99.90;;;;;;5072319;28;20544;-72
2021/04/01 06:29:02;;;;;;;115.15;48.03;;;12.00;99.90;;;;;;5071760;28;20118;-72
2021/04/01 06:31:40;;;;;;;113.95;48.13;;;12.00;99.90;;;;;;5070218;28;20021;-73
2021/04/01 06:34:07;;;;;;;114.43;46.33;;;12.00;99.90;;;;;;5071134;28;20027;-72
2021/04/01 06:36:35;;;;;;;108.18;48.92;;;12.10;99.90;;;;;;5069110;28;20074;-73
2021/04/01 06:39:01;;;;;;;122.47;46.63;;;12.00;99.90;;;;;;5070985;28;20064;-73
2021/04/01 06:41:28;;;;;;;116.25;48.78;;;12.00;99.90;;;;;;5053189;28;20456;-73
2021/04/01 06:44:27;;;;;;;116.88;47.22;;;12.10;99.90;;;;;;5065633;28;20040;-74
2021/04/01 06:47:15;;;;;;;112.53;48.17;;;12.20;99.90;;;;;;5070594;28;20035;-73
2021/04/01 06:52:21;;;;;;;122.20;49.95;;;12.10;99.90;;;;;;5071922;28;20032;-72
2021/04/01 06:55:12;;;;;;;127.15;53.53;;;12.20;99.90;;;;;;5070419;28;20412;-72
2021/04/01 07:03:16;;;;;;;122.80;51.50;;;12.10;99.90;;;;;;5072899;28;20047;-73
2021/04/01 07:06:00;;;;;;;126.18;50.53;;;12.10;99.90;;;;;;5038114;28;20102;-72
2021/04/01 07:11:37;;;;;;;132.32;52.92;;;12.10;99.90;;;;;;5075048;28;20115;-73
2021/04/01 07:14:09;;;;;;;123.65;51.00;;;12.20;99.90;;;;;;5073814;28;20032;-73
2021/04/01 07:16:56;;;;;;;124.28;51.92;;;12.10;99.90;;;;;;5057047;28;20076;-74
2021/04/01 07:19:32;;;;;;;117.50;49.20;;;12.10;99.90;;;;;;5064085;28;20135;-73
2021/04/01 07:35:58;;;;;;;117.57;49.90;;;12.00;99.90;;;;;;5072961;28;20036;-72
2021/04/01 07:46:51;;;;;;;128.93;47.38;;;12.00;99.90;;;;;;5072248;28;20044;-72
2021/04/01 07:49:23;;;;;;;104.93;48.75;;;12.20;99.90;;;;;;5073565;28;20469;-75
2021/04/01 07:52:01;;;;;;;111.75;47.80;;;12.30;99.90;;;;;;5055937;28;20119;-74
2021/04/01 07:57:57;;;;;;;111.25;45.10;;;12.30;99.90;;;;;;5074327;28;20056;-74
2021/04/01 08:00:42;;;;;;;110.85;45.42;;;12.30;99.90;;;;;;5074490;28;20052;-75
2021/04/01 08:05:56;;;;;;;111.30;45.72;;;12.30;99.90;;;;;;5065107;28;20093;-72
2021/04/01 08:08:23;;;;;;;105.32;42.40;;;12.40;99.90;;;;;;5073465;28;20020;-73
2021/04/01 08:10:51;;;;;;;104.68;43.78;;;12.50;99.90;;;;;;5055840;28;20036;-73
2021/04/01 08:13:29;;;;;;;94.03;38.05;;;12.50;99.90;;;;;;5055919;28;20029;-72
2021/04/01 08:15:59;;;;;;;99.60;40.30;;;12.40;99.90;;;;;;5073556;28;20029;-72
2021/04/01 08:18:30;;;;;;;93.97;41.15;;;12.30;99.90;;;;;;5061196;28;20035;-72
2021/04/01 08:21:03;;;;;;;89.68;37.65;;;12.30;99.90;;;;;;5063707;28;20040;-72
2021/04/01 08:23:40;;;;;;;90.07;35.85;;;12.40;99.90;;;;;;5074051;28;20067;-73
2021/04/01 08:26:16;;;;;;;94.45;35.92;;;12.50;99.90;;;;;;5056228;28;20025;-72
2021/04/01 08:29:04;;;;;;;84.45;33.95;;;12.60;99.90;;;;;;5073694;28;20025;-72
2021/04/01 08:34:00;;;;;;;72.93;32.38;;;12.70;99.90;;;;;;5072865;28;20027;-71
2021/04/01 08:36:27;;;;;;;76.07;30.20;;;12.80;99.90;;;;;;5061263;28;20024;-72
2021/04/01 08:38:53;;;;;;;73.22;31.60;;;12.80;99.90;;;;;;5072662;28;20032;-72
2021/04/01 08:41:35;;;;;;;73.50;28.88;;;12.90;99.90;;;;;;5057431;28;20024;-73
2021/04/01 08:44:29;;;;;;;64.57;27.73;;;13.00;99.90;;;;;;5073598;28;20165;-72
2021/04/01 08:47:17;;;;;;;62.58;25.55;;;13.00;99.90;;;;;;5073173;28;20056;-73
2021/04/01 08:50:19;;;;;;;68.32;27.00;;;13.00;99.90;;;;;;5057738;28;20028;-73
2021/04/01 08:53:24;;;;;;;49.63;20.65;;;13.10;99.90;;;;;;5057039;28;20020;-73
2021/04/01 08:56:17;;;;;;;51.20;20.45;;;13.20;99.90;;;;;;5053828;28;20027;-73
2021/04/01 08:58:51;;;;;;;50.20;20.08;;;13.40;99.90;;;;;;5067474;28;20474;-71
2021/04/01 09:01:18;;;;;;;46.50;18.25;;;13.40;99.90;;;;;;5054961;28;20064;-72
2021/04/01 09:03:47;;;;;;;39.20;17.33;;;13.50;99.90;;;;;;5055446;28;20131;-72
2021/04/01 09:06:17;;;;;;;42.30;17.98;;;13.40;99.90;;;;;;5066966;28;20485;-72
2021/04/01 09:08:51;;;;;;;39.97;17.52;;;13.30;99.90;;;;;;5061395;28;20082;-72
2021/04/01 09:11:26;;;;;;;40.90;16.52;;;13.40;99.90;;;;;;5053371;28;20383;-74
2021/04/01 09:13:55;;;;;;;30.42;13.07;;;13.50;99.90;;;;;;5071118;28;20033;-73
2021/04/01 09:16:31;;;;;;;35.90;13.75;;;13.60;99.90;;;;;;5072082;28;20032;-73
2021/04/01 09:19:04;;;;;;;42.33;13.05;;;13.70;99.90;;;;;;5070612;28;20488;-74
2021/04/01 09:21:37;;;;;;;32.25;12.43;;;13.70;99.90;;;;;;5068784;28;20021;-72
2021/04/01 09:24:08;;;;;;;20.73;8.10;;;13.90;99.90;;;;;;5052083;28;20052;-72
2021/04/01 09:26:35;;;;;;;13.77;6.70;;;13.80;99.90;;;;;;5069081;28;20020;-72
2021/04/01 09:29:06;;;;;;;20.80;7.13;;;13.60;99.90;;;;;;5071015;28;20016;-72
2021/04/01 09:31:43;;;;;;;18.20;5.50;;;13.60;99.90;;;;;;5070931;28;20012;-71
2021/04/01 09:34:11;;;;;;;16.20;6.10;;;13.60;99.90;;;;;;5052652;28;20032;-71
2021/04/01 09:36:42;;;;;;;18.83;4.53;;;13.70;99.90;;;;;;5070605;28;20025;-73
2021/04/01 09:39:27;;;;;;;16.02;5.22;;;13.70;99.90;;;;;;5068300;28;20388;-74
2021/04/01 09:42:13;;;;;;;11.25;3.38;;;13.60;99.90;;;;;;5070713;28;20294;-74
2021/04/01 09:45:00;;;;;;;10.15;2.70;;;13.70;99.90;;;;;;5067313;28;20031;-74
2021/04/01 09:48:00;;;;;;;15.30;4.60;;;13.80;99.90;;;;;;5069683;28;20120;-73
2021/04/01 09:50:30;;;;;;;10.65;3.15;;;13.80;99.90;;;;;;5071920;28;20024;-74
2021/04/01 09:53:05;;;;;;;6.65;2.17;;;14.00;99.90;;;;;;5068824;28;20017;-73
2021/04/01 09:55:39;;;;;;;59.45;3.75;;;14.10;99.90;;;;;;5068944;28;20498;-73
2021/04/01 09:58:36;;;;;;;11.38;3.00;;;14.20;99.90;;;;;;5071440;28;20028;-73
2021/04/01 10:04:15;;;;;;;13.45;2.15;;;14.30;99.90;;;;;;5071929;28;20495;-73
2021/04/01 10:06:45;;;;;;;9.50;2.45;;;14.50;99.90;;;;;;5071740;28;20028;-72
2021/04/01 10:09:15;;;;;;;12.70;2.38;;;14.50;99.90;;;;;;5053126;28;20025;-74
2021/04/01 10:11:53;;;;;;;15.00;1.95;;;14.60;99.90;;;;;;5053180;28;20115;-73
2021/04/01 10:14:20;;;;;;;8.05;2.17;;;14.60;99.90;;;;;;5071784;28;20044;-73
2021/04/01 10:17:05;;;;;;;8.50;1.75;;;14.80;99.90;;;;;;5070413;28;20059;-74
2021/04/01 10:19:39;;;;;;;10.95;1.80;;;14.70;99.90;;;;;;5069100;28;20033;-73
2021/04/01 10:22:05;;;;;;;8.40;1.85;;;14.50;99.90;;;;;;5071792;28;20130;-74
2021/04/01 10:24:37;;;;;;;14.27;2.95;;;14.40;99.90;;;;;;5067196;28;20098;-73
2021/04/01 10:27:09;;;;;;;19.42;3.03;;;14.30;99.90;;;;;;5066668;28;20025;-73
2021/04/01 10:30:19;;;;;;;10.52;1.70;;;14.30;99.90;;;;;;5071363;28;20032;-73
2021/04/01 10:32:41;;;;;;;11.27;2.13;;;14.30;99.90;;;;;;5062160;28;20101;-75
2021/04/01 10:35:11;;;;;;;13.90;2.10;;;14.20;99.90;;;;;;5071357;28;20033;-73
2021/04/01 10:37:46;;;;;;;11.63;1.98;;;14.20;99.90;;;;;;5075139;28;20029;-73
2021/04/01 10:40:13;;;;;;;12.23;1.75;;;14.30;99.90;;;;;;5075304;28;20044;-73
2021/04/01 10:42:42;;;;;;;18.63;2.28;;;14.20;99.90;;;;;;5055355;28;20065;-71
2021/04/01 10:45:13;;;;;;;9.50;2.25;;;14.10;99.90;;;;;;5072218;28;20126;-73
2021/04/01 10:47:50;;;;;;;12.40;2.83;;;14.20;99.90;;;;;;5057290;28;20040;-74
2021/04/01 10:50:18;;;;;;;11.68;2.03;;;14.30;99.90;;;;;;5076004;28;20391;-74
2021/04/01 10:52:44;;;;;;;16.27;5.03;;;14.10;99.90;;;;;;5057598;28;20408;-73
2021/04/01 10:55:10;;;;;;;20.55;3.67;;;14.10;99.90;;;;;;5057115;28;20037;-74
2021/04/01 10:57:36;;;;;;;14.23;3.00;;;14.10;99.90;;;;;;5057192;28;20032;-74
2021/04/01 11:00:09;;;;;;;20.67;2.83;;;14.30;99.90;;;;;;5075628;28;20075;-74
2021/04/01 11:02:48;;;;;;;16.92;2.35;;;14.40;99.90;;;;;;5075844;28;20029;-74
2021/04/01 11:05:19;;;;;;;16.83;3.25;;;14.50;99.90;;;;;;5075838;28;20505;-73
2021/04/01 11:07:50;;;;;;;13.43;2.47;;;14.50;99.90;;;;;;5075599;28;20052;-72
2021/04/01 11:10:21;;;;;;;17.10;2.58;;;14.30;99.90;;;;;;5057784;28;20043;-74
2021/04/01 11:12:50;;;;;;;13.43;3.92;;;14.30;99.90;;;;;;5075634;28;20103;-73
2021/04/01 11:15:18;;;;;;;15.50;2.53;;;14.10;99.90;;;;;;5075511;28;20025;-74
2021/04/01 11:17:46;;;;;;;;;;;14.10;99.90;;;;;;5057641;28;20136;-73
2021/04/01 11:20:14;;;;;;;8.20;2.17;;;14.00;99.90;;;;;;5087038;28;19951;-73
2021/04/01 11:22:40;;;;;;;15.02;3.05;;;13.90;99.90;;;;;;5057615;28;20048;-74
2021/04/01 11:25:13;;;;;;;7.75;1.80;;;13.90;99.90;;;;;;5057396;28;20067;-73
2021/04/01 11:27:55;;;;;;;13.00;2.80;;;14.10;99.90;;;;;;5075430;28;20043;-75
2021/04/01 11:30:21;;;;;;;19.67;2.22;;;14.00;99.90;;;;;;5057441;28;20563;-74
2021/04/01 11:32:52;;;;;;;8.05;2.70;;;14.10;99.90;;;;;;5075227;28;20025;-74
2021/04/01 11:35:24;;;;;;;15.90;2.03;;;14.00;99.90;;;;;;5075255;28;20377;-74
2021/04/01 11:37:53;;;;;;;7.40;1.88;;;14.10;99.90;;;;;;5075084;28;20024;-74
2021/04/01 11:40:20;;;;;;;15.05;3.25;;;14.20;99.90;;;;;;5075080;28;20075;-74
2021/04/01 11:42:59;;;;;;;12.13;2.70;;;14.20;99.90;;;;;;5075052;28;20435;-74
2021/04/01 11:45:36;;;;;;;8.88;1.90;;;14.30;99.90;;;;;;5074403;28;20028;-75
2021/04/01 11:48:04;;;;;;;10.82;1.58;;;14.10;99.90;;;;;;5053569;28;20059;-74
2021/04/01 11:50:30;;;;;;;;;;;14.30;99.90;;;;;;5055372;28;20021;-74
2021/04/01 11:53:00;;;;;;;9.00;1.65;;;14.40;99.90;;;;;;5056078;28;19915;-73
2021/04/01 11:55:27;;;;;;;5.95;1.63;;;14.50;99.90;;;;;;5074950;28;20025;-73
2021/04/01 11:57:53;;;;;;;13.05;2.78;;;14.40;99.90;;;;;;5056807;28;20027;-75
2021/04/01 12:00:25;;;;;;;7.18;1.60;;;14.40;99.90;;;;;;5074636;28;20045;-74
2021/04/01 12:05:25;;;;;;;7.22;1.40;;;14.20;99.90;;;;;;5075038;28;20072;-74
2021/04/01 12:07:51;;;;;;;;;;;14.30;99.90;;;;;;5075024;28;20033;-74
2021/04/01 12:10:17;;;;;;;9.30;1.98;;;14.30;99.90;;;;;;5056468;28;19916;-73
2021/04/01 12:12:42;;;;;;;10.60;1.92;;;14.20;99.90;;;;;;5074601;28;20104;-72
2021/04/01 12:15:09;;;;;;;6.88;2.05;;;14.10;99.90;;;;;;5074550;28;20109;-73
2021/04/01 12:17:37;;;;;;;12.98;2.33;;;14.10;99.90;;;;;;5074510;28;20032;-74
2021/04/01 12:20:10;;;;;;;7.22;1.98;;;14.10;99.90;;;;;;5074308;28;20036;-75
2021/04/01 12:22:40;;;;;;;13.88;2.03;;;14.20;99.90;;;;;;5074305;28;20024;-72
2021/04/01 12:25:09;;;;;;;15.20;2.20;;;14.30;99.90;;;;;;5074325;28;20426;-73
2021/04/01 12:27:35;;;;;;;15.13;3.00;;;14.00;99.90;;;;;;5073951;28;20033;-74
2021/04/01 12:30:01;;;;;;;9.25;2.15;;;14.10;99.90;;;;;;5055631;28;20562;-73
2021/04/01 12:32:32;;;;;;;15.82;2.38;;;13.90;99.90;;;;;;5074003;28;20483;-74
2021/04/01 12:35:13;;;;;;;9.32;1.80;;;14.00;99.90;;;;;;5055825;28;20025;-72
2021/04/01 12:37:40;;;;;;;12.70;2.70;;;14.00;99.90;;;;;;5073987;28;20030;-74
2021/04/01 12:40:17;;;;;;;11.27;1.88;;;14.00;99.90;;;;;;5074034;28;20024;-73
2021/04/01 12:42:44;;;;;;;17.43;2.80;;;13.90;99.90;;;;;;5073873;28;20033;-74
2021/04/01 12:45:29;;;;;;;15.25;2.53;;;14.00;99.90;;;;;;5073620;28;20271;-73
2021/04/01 12:48:08;;;;;;;11.20;2.22;;;14.00;99.90;;;;;;5073747;28;20029;-75
2021/04/01 12:50:36;;;;;;;12.32;2.08;;;14.00;99.90;;;;;;5045630;28;20491;-74
2021/04/01 12:53:04;;;;;;;14.95;2.05;;;14.00;99.90;;;;;;5035841;28;20029;-74
2021/04/01 12:55:44;;;;;;;15.00;3.72;;;13.90;99.90;;;;;;5052886;28;20103;-74
2021/04/01 12:58:26;;;;;;;10.82;1.75;;;14.00;99.90;;;;;;5053668;28;20030;-72
2021/04/01 13:01:10;;;;;;;10.02;2.47;;;14.00;99.90;;;;;;5054078;28;20076;-74
2021/04/01 13:03:35;;;;;;;8.40;2.10;;;14.10;99.90;;;;;;5053963;28;20033;-74
2021/04/01 13:06:04;;;;;;;15.70;2.50;;;14.00;99.90;;;;;;5053608;28;20039;-73
2021/04/01 13:11:14;;;;;;;17.55;3.15;;;13.90;99.90;;;;;;5053762;28;20067;-73
2021/04/01 13:13:41;;;;;;;11.05;2.45;;;13.80;99.90;;;;;;5052019;28;20033;-74
2021/04/01 13:16:06;;;;;;;17.70;4.18;;;14.10;99.90;;;;;;5051859;28;20485;-72
2021/04/01 13:18:32;;;;;;;13.38;2.42;;;14.10;99.90;;;;;;5059385;28;20032;-74
2021/04/01 13:20:59;;;;;;;17.10;2.30;;;14.10;99.90;;;;;;5055222;28;20071;-74
2021/04/01 13:23:31;;;;;;;10.40;2.17;;;13.70;99.90;;;;;;5073131;28;20067;-75
2021/04/01 13:25:57;;;;;;;16.15;2.63;;;13.70;99.90;;;;;;5055281;28;20024;-73
2021/04/01 13:28:23;;;;;;;11.07;2.28;;;13.80;99.90;;;;;;5073091;28;20068;-75
2021/04/01 13:30:56;;;;;;;14.45;1.83;;;13.70;99.90;;;;;;5073415;28;20047;-73
2021/04/01 13:33:36;;;;;;;18.45;3.92;;;13.80;99.90;;;;;;5073119;28;20473;-74
2021/04/01 13:36:20;;;;;;;15.27;2.05;;;13.70;99.90;;;;;;5055008;28;20017;-73
2021/04/01 13:38:45;;;;;;;22.52;2.85;;;13.80;99.90;;;;;;5054713;28;20058;-73
2021/04/01 13:41:15;;;;;;;13.82;2.00;;;14.00;99.90;;;;;;5072854;28;20028;-72
2021/04/01 13:43:43;;;;;;;18.65;2.33;;;13.90;99.90;;;;;;5072762;28;20024;-74
2021/04/01 13:46:09;;;;;;;22.23;2.22;;;14.00;99.90;;;;;;5054550;28;20089;-74
2021/04/01 13:48:38;;;;;;;15.70;2.38;;;14.20;99.90;;;;;;5054813;28;20380;-72
2021/04/01 13:51:10;;;;;;;16.15;2.28;;;14.10;99.90;;;;;;5072960;28;20025;-72
2021/04/01 13:56:12;;;;;;;17.67;2.42;;;14.10;99.90;;;;;;5073163;28;20028;-74
2021/04/01 14:09:43;;;;;;;21.52;3.85;;;13.90;99.90;;;;;;5077048;28;20059;-73
2021/04/01 14:12:10;;;;;;;13.48;3.35;;;13.80;99.90;;;;;;5076886;28;20388;-72
2021/04/01 14:14:36;;;;;;;13.05;2.70;;;13.80;99.90;;;;;;5058918;28;20031;-73
2021/04/01 14:17:05;;;;;;;12.75;2.90;;;13.70;99.90;;;;;;5058684;28;20515;-74
2021/04/01 14:19:30;;;;;;;14.60;3.78;;;13.90;99.90;;;;;;5057165;28;20127;-74
2021/04/01 14:21:59;;;;;;;11.35;2.35;;;14.00;99.90;;;;;;5056534;28;20107;-74
2021/04/01 14:24:49;;;;;;;16.08;2.83;;;13.60;99.90;;;;;;5038474;28;20396;-74
2021/04/01 14:29:42;;;;;;;17.17;2.25;;;13.10;99.90;;;;;;5076806;28;20086;-74
2021/04/01 14:32:12;;;;;;;15.68;2.92;;;13.20;99.90;;;;;;5076525;28;20024;-74
2021/04/01 14:34:39;;;;;;;14.85;2.97;;;13.10;99.90;;;;;;5058264;28;20052;-73